Time;durP1;ratioP1;P1;durP2;ratioP2;P2;SDS_P1;SDS_P2;PMS_P1;PMS_P2;Temp;Humidity;BMP_temperature;BMP_pressure;BME280_temperature;BME280_humidity;BME280_pressure;Samples;Min_cycle;Max_cycle;Signal;HPM_P1;HPM_P2
2021/09/25 00:00:34;;;;;;;;;3473.00;3473.00;;;;;;;;6321647;22;8752;-86
2021/09/25 00:03:01;;;;;;;;;3412.75;3412.75;;;;;;;;6321632;22;8745;-85
2021/09/25 00:05:32;;;;;;;;;3438.20;3438.20;;;;;;;;6320939;22;8737;-84
2021/09/25 00:07:58;;;;;;;;;3332.20;3332.20;;;;;;;;6321041;22;8733;-85
2021/09/25 00:10:24;;;;;;;;;3478.25;3478.25;;;;;;;;6293199;22;8779;-85
2021/09/25 00:12:49;;;;;;;;;3442.60;3442.60;;;;;;;;6292920;22;8858;-85
2021/09/25 00:15:16;;;;;;;;;3430.25;3430.25;;;;;;;;6321674;22;8827;-85
2021/09/25 00:17:42;;;;;;;;;3448.20;3448.20;;;;;;;;6321524;22;9722;-85
2021/09/25 00:20:08;;;;;;;;;3425.00;3425.00;;;;;;;;6321495;22;8748;-85
2021/09/25 00:22:33;;;;;;;;;3446.80;3446.80;;;;;;;;6321636;22;9680;-86
2021/09/25 00:25:01;;;;;;;;;3435.50;3435.50;;;;;;;;6321829;22;8874;-86
2021/09/25 00:27:26;;;;;;;;;3441.20;3441.20;;;;;;;;6320713;22;9619;-85
2021/09/25 00:29:51;;;;;;;;;3433.75;3433.75;;;;;;;;6312104;22;8780;-86
2021/09/25 00:32:17;;;;;;;;;3428.50;3428.50;;;;;;;;6321270;22;8829;-85
2021/09/25 00:34:42;;;;;;;;;3432.00;3432.00;;;;;;;;6319021;22;8764;-85
2021/09/25 00:37:07;;;;;;;;;3435.50;3435.50;;;;;;;;6321451;22;8769;-85
2021/09/25 00:39:33;;;;;;;;;3435.50;3435.50;;;;;;;;6321233;22;8760;-85
2021/09/25 00:41:58;;;;;;;;;3430.25;3430.25;;;;;;;;6292597;22;9515;-84
2021/09/25 00:44:23;;;;;;;;;3433.75;3433.75;;;;;;;;6321620;22;8866;-85
2021/09/25 00:46:49;;;;;;;;;3433.75;3433.75;;;;;;;;6321224;22;8733;-85
2021/09/25 00:49:19;;;;;;;;;3426.75;3426.75;;;;;;;;6292942;22;8922;-85
2021/09/25 00:51:44;;;;;;;;;3442.60;3442.60;;;;;;;;6320645;22;8685;-85
2021/09/25 00:54:09;;;;;;;;;3435.50;3435.50;;;;;;;;6321368;22;8799;-85
2021/09/25 00:56:35;;;;;;;;;3430.25;3430.25;;;;;;;;6320862;22;8744;-85
2021/09/25 00:59:01;;;;;;;;;3452.60;3452.60;;;;;;;;6321087;22;9564;-85
2021/09/25 01:01:26;;;;;;;;;3435.50;3435.50;;;;;;;;6321325;22;8775;-85
2021/09/25 01:03:51;;;;;;;;;3435.50;3435.50;;;;;;;;6320995;22;8875;-84
2021/09/25 01:06:17;;;;;;;;;3435.50;3435.50;;;;;;;;6321020;22;8775;-85
2021/09/25 01:08:42;;;;;;;;;3435.50;3435.50;;;;;;;;6320952;22;8748;-85
2021/09/25 01:11:08;;;;;;;;;3435.50;3435.50;;;;;;;;6320980;22;8729;-85
2021/09/25 01:13:33;;;;;;;;;3432.00;3432.00;;;;;;;;6321077;22;8893;-85
2021/09/25 01:15:58;;;;;;;;;3437.25;3437.25;;;;;;;;6321000;22;8748;-86
2021/09/25 01:18:23;;;;;;;;;3439.25;3439.25;;;;;;;;6321056;22;8780;-85
2021/09/25 01:20:49;;;;;;;;;3437.25;3437.25;;;;;;;;6320998;22;8729;-86
2021/09/25 01:23:14;;;;;;;;;3455.00;3455.00;;;;;;;;6320993;22;8840;-85
2021/09/25 01:25:40;;;;;;;;;3439.25;3439.25;;;;;;;;6321033;22;8780;-85
2021/09/25 01:28:05;;;;;;;;;3435.50;3435.50;;;;;;;;6291992;22;8793;-85
2021/09/25 01:30:31;;;;;;;;;3446.00;3446.00;;;;;;;;6292473;22;8749;-84
2021/09/25 01:32:56;;;;;;;;;3439.25;3439.25;;;;;;;;6292974;22;9037;-85
2021/09/25 01:35:22;;;;;;;;;3441.00;3441.00;;;;;;;;6321232;22;8894;-85
2021/09/25 01:37:49;;;;;;;;;3454.40;3454.40;;;;;;;;6322204;22;8733;-85
2021/09/25 01:40:15;;;;;;;;;3451.00;3451.00;;;;;;;;6293980;22;8838;-84
2021/09/25 01:42:40;;;;;;;;;3465.50;3465.50;;;;;;;;6322256;22;8728;-84
2021/09/25 01:45:06;;;;;;;;;3465.50;3465.50;;;;;;;;6322553;22;8756;-85
2021/09/25 01:47:32;;;;;;;;;3469.40;3469.40;;;;;;;;6322039;22;8725;-85
2021/09/25 01:49:59;;;;;;;;;3480.33;3480.33;;;;;;;;6322776;22;8728;-84
2021/09/25 01:52:25;;;;;;;;;3471.00;3471.00;;;;;;;;6322205;22;8685;-85
2021/09/25 01:54:50;;;;;;;;;3478.00;3478.00;;;;;;;;6293826;22;8887;-85
2021/09/25 01:57:16;;;;;;;;;3473.33;3473.33;;;;;;;;6321751;22;8768;-85
2021/09/25 01:59:41;;;;;;;;;3480.25;3480.25;;;;;;;;6322287;22;8839;-86
2021/09/25 02:02:07;;;;;;;;;3480.25;3480.25;;;;;;;;6294011;22;8873;-85
2021/09/25 02:04:34;;;;;;;;;3472.20;3472.20;;;;;;;;6293273;22;8749;-86
2021/09/25 02:06:59;;;;;;;;;3472.20;3472.20;;;;;;;;6321940;22;8757;-85
2021/09/25 02:09:24;;;;;;;;;3462.00;3462.00;;;;;;;;6293558;22;8772;-85
2021/09/25 02:11:50;;;;;;;;;3472.50;3472.50;;;;;;;;6321794;22;8775;-85
2021/09/25 02:14:15;;;;;;;;;3469.00;3469.00;;;;;;;;6321998;22;8779;-85
2021/09/25 02:16:40;;;;;;;;;3467.25;3467.25;;;;;;;;6322061;22;8756;-85
2021/09/25 02:19:06;;;;;;;;;3485.50;3485.50;;;;;;;;6322025;22;8747;-85
2021/09/25 02:21:31;;;;;;;;;3480.25;3480.25;;;;;;;;6321882;22;8770;-85
2021/09/25 02:23:57;;;;;;;;;3485.50;3485.50;;;;;;;;6322211;22;8830;-86
2021/09/25 02:26:22;;;;;;;;;3469.00;3469.00;;;;;;;;6293430;22;10226;-85
2021/09/25 02:28:47;;;;;;;;;3469.00;3469.00;;;;;;;;6321343;22;8776;-85
2021/09/25 02:31:13;;;;;;;;;3469.00;3469.00;;;;;;;;6321957;22;8733;-85
2021/09/25 02:33:38;;;;;;;;;3476.25;3476.25;;;;;;;;6321690;22;8764;-85
2021/09/25 02:36:04;;;;;;;;;3469.00;3469.00;;;;;;;;6321814;22;8744;-85
2021/09/25 02:38:29;;;;;;;;;3474.25;3474.25;;;;;;;;6321840;22;8745;-85
2021/09/25 02:40:54;;;;;;;;;3518.50;3518.50;;;;;;;;6293727;22;8807;-85
2021/09/25 02:43:20;;;;;;;;;3514.67;3514.67;;;;;;;;6321809;22;8737;-85
2021/09/25 02:45:45;;;;;;;;;3516.75;3516.75;;;;;;;;6322007;22;8776;-85
2021/09/25 02:48:11;;;;;;;;;3519.33;3519.33;;;;;;;;6293062;22;8764;-85
2021/09/25 02:50:37;;;;;;;;;3504.00;3504.00;;;;;;;;6322010;22;9441;-88
2021/09/25 02:53:02;;;;;;;;;3514.50;3514.50;;;;;;;;6322015;22;8807;-84
2021/09/25 02:55:27;;;;;;;;;3522.00;3522.00;;;;;;;;6322194;22;8749;-85
2021/09/25 02:57:53;;;;;;;;;3512.33;3512.33;;;;;;;;6321013;22;8736;-84
2021/09/25 03:00:19;;;;;;;;;3522.50;3522.50;;;;;;;;6322228;22;8821;-84
2021/09/25 03:02:44;;;;;;;;;3529.50;3529.50;;;;;;;;6321612;22;11465;-84
2021/09/25 03:05:10;;;;;;;;;3520.80;3520.80;;;;;;;;6321673;22;8740;-84
2021/09/25 03:07:35;;;;;;;;;3520.80;3520.80;;;;;;;;6321595;22;8775;-85
2021/09/25 03:10:01;;;;;;;;;3522.00;3522.00;;;;;;;;6321794;22;8806;-85
2021/09/25 03:12:26;;;;;;;;;3529.00;3529.00;;;;;;;;6321573;22;8946;-85
2021/09/25 03:14:52;;;;;;;;;3529.00;3529.00;;;;;;;;6321988;22;8770;-85
2021/09/25 03:17:17;;;;;;;;;3522.00;3522.00;;;;;;;;6293549;22;8783;-84
2021/09/25 03:19:42;;;;;;;;;3518.25;3518.25;;;;;;;;6293450;22;8753;-86
2021/09/25 03:22:08;;;;;;;;;3511.00;3511.00;;;;;;;;6321242;22;8772;-84
2021/09/25 03:24:33;;;;;;;;;3516.25;3516.25;;;;;;;;6293209;22;8854;-83
2021/09/25 03:26:59;;;;;;;;;3531.50;3531.50;;;;;;;;6321473;22;8713;-84
2021/09/25 03:29:24;;;;;;;;;3526.00;3526.00;;;;;;;;6321440;22;8780;-84
2021/09/25 03:31:50;;;;;;;;;3513.00;3513.00;;;;;;;;6321867;22;8736;-87
2021/09/25 03:34:16;;;;;;;;;3526.00;3526.00;;;;;;;;6321581;22;8737;-85
2021/09/25 03:36:41;;;;;;;;;3532.60;3532.60;;;;;;;;6321481;22;8827;-85
2021/09/25 03:39:08;;;;;;;;;3526.00;3526.00;;;;;;;;6321534;22;8736;-84
2021/09/25 03:41:33;;;;;;;;;3526.00;3526.00;;;;;;;;6321138;22;8724;-84
2021/09/25 03:43:59;;;;;;;;;3529.67;3529.67;;;;;;;;6321972;22;8756;-84
2021/09/25 03:46:24;;;;;;;;;3524.33;3524.33;;;;;;;;6321811;22;8748;-84
2021/09/25 03:48:49;;;;;;;;;3533.00;3533.00;;;;;;;;6321964;22;8729;-85
2021/09/25 03:51:15;;;;;;;;;3516.25;3516.25;;;;;;;;6293377;22;9527;-84
2021/09/25 03:53:41;;;;;;;;;3515.00;3515.00;;;;;;;;6320924;22;8788;-84
2021/09/25 03:56:09;;;;;;;;;3518.25;3518.25;;;;;;;;6321265;22;8787;-83
2021/09/25 03:58:35;;;;;;;;;3520.00;3520.00;;;;;;;;6292847;22;8744;-85
2021/09/25 04:01:00;;;;;;;;;3526.00;3526.00;;;;;;;;6293290;22;9512;-85
2021/09/25 04:03:26;;;;;;;;;3541.50;3541.50;;;;;;;;6292934;22;8748;-87
2021/09/25 04:05:51;;;;;;;;;3522.00;3522.00;;;;;;;;6293393;22;8895;-84
2021/09/25 04:08:17;;;;;;;;;3529.50;3529.50;;;;;;;;6293207;22;8748;-86
2021/09/25 04:10:42;;;;;;;;;3522.00;3522.00;;;;;;;;6293359;22;8863;-83
2021/09/25 04:13:07;;;;;;;;;3529.00;3529.00;;;;;;;;6320866;22;8830;-85
2021/09/25 04:15:33;;;;;;;;;3540.50;3540.50;;;;;;;;6321325;22;8732;-83
2021/09/25 04:17:58;;;;;;;;;3540.50;3540.50;;;;;;;;6321571;22;8770;-84
2021/09/25 04:20:23;;;;;;;;;3544.50;3544.50;;;;;;;;6321422;22;8763;-85
2021/09/25 04:22:49;;;;;;;;;3547.67;3547.67;;;;;;;;6321159;22;8760;-83
2021/09/25 04:25:15;;;;;;;;;3527.33;3527.33;;;;;;;;6321170;22;8744;-84
2021/09/25 04:27:40;;;;;;;;;3532.75;3532.75;;;;;;;;6321047;22;8771;-84
2021/09/25 04:30:07;;;;;;;;;3542.00;3542.00;;;;;;;;6320575;22;8807;-84
2021/09/25 04:32:33;;;;;;;;;3536.50;3536.50;;;;;;;;6292282;22;8891;-83
2021/09/25 04:34:58;;;;;;;;;3527.33;3527.33;;;;;;;;6321284;22;8753;-83
2021/09/25 04:37:23;;;;;;;;;3555.00;3555.00;;;;;;;;6321167;22;9682;-82
2021/09/25 04:39:49;;;;;;;;;3526.00;3526.00;;;;;;;;6321133;22;8761;-83
2021/09/25 04:42:15;;;;;;;;;3541.00;3541.00;;;;;;;;6320781;22;9602;-84
2021/09/25 04:44:40;;;;;;;;;3544.50;3544.50;;;;;;;;6293294;22;8937;-82
2021/09/25 04:47:05;;;;;;;;;3537.00;3537.00;;;;;;;;6321357;22;10429;-83
2021/09/25 04:49:31;;;;;;;;;3550.20;3550.20;;;;;;;;6321128;22;11056;-83
2021/09/25 04:51:56;;;;;;;;;3540.50;3540.50;;;;;;;;6321295;22;8748;-84
2021/09/25 04:54:21;;;;;;;;;3548.00;3548.00;;;;;;;;6321099;22;8780;-82
2021/09/25 04:56:47;;;;;;;;;3531.25;3531.25;;;;;;;;6292672;22;8764;-82
2021/09/25 04:59:12;;;;;;;;;3538.50;3538.50;;;;;;;;6320950;22;8748;-83
2021/09/25 05:01:37;;;;;;;;;3541.67;3541.67;;;;;;;;6321411;22;8793;-85
2021/09/25 05:04:04;;;;;;;;;3534.33;3534.33;;;;;;;;6321174;22;8821;-85
2021/09/25 05:06:29;;;;;;;;;3544.00;3544.00;;;;;;;;6320698;22;11232;-85
2021/09/25 05:08:55;;;;;;;;;3539.00;3539.00;;;;;;;;6321206;22;8826;-85
2021/09/25 05:11:20;;;;;;;;;3538.50;3538.50;;;;;;;;6293170;22;8740;-85
2021/09/25 05:13:46;;;;;;;;;3549.33;3549.33;;;;;;;;6322390;22;8752;-85
2021/09/25 05:16:11;;;;;;;;;3544.00;3544.00;;;;;;;;6322504;22;8819;-85
2021/09/25 05:18:37;;;;;;;;;3556.00;3556.00;;;;;;;;6322510;22;8859;-85
2021/09/25 05:21:03;;;;;;;;;3519.20;3519.20;;;;;;;;6322372;22;8752;-85
2021/09/25 05:23:28;;;;;;;;;3518.75;3518.75;;;;;;;;6322264;22;8763;-85
2021/09/25 05:25:53;;;;;;;;;3548.00;3548.00;;;;;;;;6322471;22;8787;-85
2021/09/25 05:28:19;;;;;;;;;3544.33;3544.33;;;;;;;;6321962;22;8881;-85
2021/09/25 05:30:44;;;;;;;;;3556.00;3556.00;;;;;;;;6294245;22;8827;-85
2021/09/25 05:33:09;;;;;;;;;3541.67;3541.67;;;;;;;;6322177;22;8764;-84
2021/09/25 05:35:35;;;;;;;;;3555.50;3555.50;;;;;;;;6322473;22;8770;-86
2021/09/25 05:38:01;;;;;;;;;3550.25;3550.25;;;;;;;;6293971;22;8717;-87
2021/09/25 05:40:26;;;;;;;;;3544.33;3544.33;;;;;;;;6323516;22;8787;-86
2021/09/25 05:42:52;;;;;;;;;3548.00;3548.00;;;;;;;;6323061;22;8740;-87
2021/09/25 05:45:17;;;;;;;;;3552.00;3552.00;;;;;;;;6322092;22;8869;-88
2021/09/25 05:47:43;;;;;;;;;3554.33;3554.33;;;;;;;;6322007;22;8768;-86
2021/09/25 05:50:09;;;;;;;;;3550.25;3550.25;;;;;;;;6321909;22;8745;-83
2021/09/25 05:52:34;;;;;;;;;3563.00;3563.00;;;;;;;;6321935;22;8749;-88
2021/09/25 05:54:59;;;;;;;;;3563.00;3563.00;;;;;;;;6293909;22;8812;-88
2021/09/25 05:57:24;;;;;;;;;3556.00;3556.00;;;;;;;;6321617;22;8843;-88
2021/09/25 05:59:50;;;;;;;;;3567.00;3567.00;;;;;;;;6321799;22;8791;-87
2021/09/25 06:02:15;;;;;;;;;3556.00;3556.00;;;;;;;;6293097;22;8846;-86
2021/09/25 06:04:40;;;;;;;;;3556.67;3556.67;;;;;;;;6321870;22;8913;-87
2021/09/25 06:07:09;;;;;;;;;3563.00;3563.00;;;;;;;;6293377;22;8811;-86
2021/09/25 06:09:34;;;;;;;;;3555.50;3555.50;;;;;;;;6322859;22;9563;-86
2021/09/25 06:12:00;;;;;;;;;3555.00;3555.00;;;;;;;;6322187;22;8861;-86
2021/09/25 06:14:25;;;;;;;;;3567.00;3567.00;;;;;;;;6322292;22;8807;-86
2021/09/25 06:16:50;;;;;;;;;3553.50;3553.50;;;;;;;;6293562;22;8764;-88
2021/09/25 06:19:16;;;;;;;;;3553.50;3553.50;;;;;;;;6296248;22;9504;-90
2021/09/25 06:21:42;;;;;;;;;3530.25;3530.25;;;;;;;;6324671;22;8732;-89
2021/09/25 06:24:07;;;;;;;;;3555.50;3555.50;;;;;;;;6322185;22;8704;-91
2021/09/25 06:26:32;;;;;;;;;3550.25;3550.25;;;;;;;;6293838;22;8796;-86
2021/09/25 06:28:58;;;;;;;;;3546.50;3546.50;;;;;;;;6321063;22;8780;-88
2021/09/25 06:31:23;;;;;;;;;3542.25;3542.25;;;;;;;;6322018;22;10571;-87
2021/09/25 06:33:48;;;;;;;;;3567.67;3567.67;;;;;;;;6321933;22;8764;-86
2021/09/25 06:36:14;;;;;;;;;3554.67;3554.67;;;;;;;;6321731;22;8795;-87
2021/09/25 06:38:39;;;;;;;;;3559.67;3559.67;;;;;;;;6322072;22;8760;-88
2021/09/25 06:41:05;;;;;;;;;3509.25;3509.25;;;;;;;;6322187;22;8756;-91
2021/09/25 06:43:31;;;;;;;;;3520.80;3520.80;;;;;;;;6293490;22;8748;-89
2021/09/25 06:45:56;;;;;;;;;3537.00;3537.00;;;;;;;;6321917;22;8748;-86
2021/09/25 06:48:21;;;;;;;;;3544.33;3544.33;;;;;;;;6324807;22;8854;-89
2021/09/25 06:50:47;;;;;;;;;3540.50;3540.50;;;;;;;;6295363;22;8810;-87
2021/09/25 06:53:12;;;;;;;;;3550.25;3550.25;;;;;;;;6295254;22;8776;-90
2021/09/25 06:55:37;;;;;;;;;3548.00;3548.00;;;;;;;;6322335;22;8845;-85
2021/09/25 06:58:05;;;;;;;;;3544.50;3544.50;;;;;;;;6322183;22;8851;-84
2021/09/25 07:00:30;;;;;;;;;3546.50;3546.50;;;;;;;;6322750;22;8780;-84
2021/09/25 07:02:56;;;;;;;;;3510.33;3510.33;;;;;;;;6322298;22;8810;-85
2021/09/25 07:05:21;;;;;;;;;3547.40;3547.40;;;;;;;;6321917;22;8776;-81
2021/09/25 07:07:47;;;;;;;;;3548.00;3548.00;;;;;;;;6322060;22;8787;-82
2021/09/25 07:10:14;;;;;;;;;3545.00;3545.00;;;;;;;;6322024;22;8757;-82
2021/09/25 07:12:39;;;;;;;;;3540.00;3540.00;;;;;;;;6321483;22;8755;-82
2021/09/25 07:15:05;;;;;;;;;3538.50;3538.50;;;;;;;;6321649;22;8768;-82
2021/09/25 07:17:32;;;;;;;;;3544.00;3544.00;;;;;;;;6322141;22;8791;-82
2021/09/25 07:19:57;;;;;;;;;3532.60;3532.60;;;;;;;;6322218;22;8740;-80
2021/09/25 07:22:23;;;;;;;;;3538.50;3538.50;;;;;;;;6293807;22;8865;-82
2021/09/25 07:24:53;;;;;;;;;3529.50;3529.50;;;;;;;;6321944;22;8820;-81
2021/09/25 07:27:19;;;;;;;;;3523.60;3523.60;;;;;;;;6321697;22;8746;-80
2021/09/25 07:29:44;;;;;;;;;3537.00;3537.00;;;;;;;;6311101;22;8906;-80
2021/09/25 07:32:09;;;;;;;;;3531.25;3531.25;;;;;;;;6322057;22;8778;-81
2021/09/25 07:34:34;;;;;;;;;3531.25;3531.25;;;;;;;;6319051;22;8812;-81
2021/09/25 07:37:00;;;;;;;;;3531.25;3531.25;;;;;;;;6321815;22;8901;-81
2021/09/25 07:39:25;;;;;;;;;3540.50;3540.50;;;;;;;;6321915;22;9568;-81
2021/09/25 07:41:51;;;;;;;;;3534.33;3534.33;;;;;;;;6321423;22;8813;-81
2021/09/25 07:44:16;;;;;;;;;3529.67;3529.67;;;;;;;;6321564;22;8907;-82
2021/09/25 07:46:41;;;;;;;;;3526.00;3526.00;;;;;;;;6322042;22;8800;-81
2021/09/25 07:49:07;;;;;;;;;3522.00;3522.00;;;;;;;;6321721;22;8744;-82
2021/09/25 07:51:32;;;;;;;;;3529.50;3529.50;;;;;;;;6321726;22;8787;-81
2021/09/25 07:53:58;;;;;;;;;3526.00;3526.00;;;;;;;;6321645;22;8772;-81
2021/09/25 07:56:23;;;;;;;;;3522.00;3522.00;;;;;;;;6321409;22;8760;-81
2021/09/25 07:58:48;;;;;;;;;3511.00;3511.00;;;;;;;;6321739;22;8740;-81
2021/09/25 08:01:14;;;;;;;;;3522.00;3522.00;;;;;;;;6321652;22;8851;-81
2021/09/25 08:03:39;;;;;;;;;3518.25;3518.25;;;;;;;;6322008;22;8768;-81
2021/09/25 08:06:05;;;;;;;;;3491.25;3491.25;;;;;;;;6321922;22;8819;-81
2021/09/25 08:08:31;;;;;;;;;3517.60;3517.60;;;;;;;;6319680;22;8704;-81
2021/09/25 08:10:56;;;;;;;;;3514.67;3514.67;;;;;;;;6321310;22;9503;-81
2021/09/25 08:13:21;;;;;;;;;3522.00;3522.00;;;;;;;;6321592;22;8881;-81
2021/09/25 08:15:50;;;;;;;;;3522.00;3522.00;;;;;;;;6321760;22;8775;-81
2021/09/25 08:18:15;;;;;;;;;3514.80;3514.80;;;;;;;;6321463;22;8732;-81
2021/09/25 08:20:40;;;;;;;;;3469.00;3469.00;;;;;;;;6321555;22;8760;-82
2021/09/25 08:23:06;;;;;;;;;3463.75;3463.75;;;;;;;;6319385;22;8952;-81
2021/09/25 08:25:31;;;;;;;;;3480.25;3480.25;;;;;;;;6321844;22;8828;-81
2021/09/25 08:27:57;;;;;;;;;3507.50;3507.50;;;;;;;;6320975;22;8842;-83
2021/09/25 08:30:24;;;;;;;;;3505.00;3505.00;;;;;;;;6318980;22;8780;-86
2021/09/25 08:32:50;;;;;;;;;3498.25;3498.25;;;;;;;;6321224;22;8744;-83
2021/09/25 08:35:17;;;;;;;;;3489.00;3489.00;;;;;;;;6319415;22;8906;-83
2021/09/25 08:37:42;;;;;;;;;3481.20;3481.20;;;;;;;;6321396;22;8751;-82
2021/09/25 08:40:10;;;;;;;;;3483.75;3483.75;;;;;;;;6321134;22;8733;-82
2021/09/25 08:42:35;;;;;;;;;3488.60;3488.60;;;;;;;;6320490;22;8729;-82
2021/09/25 08:45:01;;;;;;;;;3530.00;3530.00;;;;;;;;6320711;22;8757;-83
2021/09/25 08:47:26;;;;;;;;;3488.60;3488.60;;;;;;;;6321173;22;8753;-82
2021/09/25 08:49:52;;;;;;;;;3474.67;3474.67;;;;;;;;6321372;22;8775;-83
2021/09/25 08:52:18;;;;;;;;;3506.00;3506.00;;;;;;;;6318893;22;8770;-82
2021/09/25 08:54:43;;;;;;;;;3467.25;3467.25;;;;;;;;6321362;22;8764;-83
2021/09/25 08:57:09;;;;;;;;;3458.25;3458.25;;;;;;;;6320906;22;11562;-82
2021/09/25 08:59:34;;;;;;;;;3458.25;3458.25;;;;;;;;6321083;22;8736;-82
2021/09/25 09:02:10;;;;;;;;;3484.40;3484.40;;;;;;;;6321085;22;8737;-83
2021/09/25 09:05:04;;;;;;;;;3488.60;3488.60;;;;;;;;6321238;22;8749;-83
2021/09/25 09:07:30;;;;;;;;;3492.40;3492.40;;;;;;;;6292954;22;8721;-83
2021/09/25 09:09:57;;;;;;;;;3485.50;3485.50;;;;;;;;6321045;22;8783;-82
2021/09/25 09:12:23;;;;;;;;;3488.60;3488.60;;;;;;;;6320800;22;8716;-82
2021/09/25 09:14:49;;;;;;;;;3473.60;3473.60;;;;;;;;6318398;22;9253;-83
2021/09/25 09:17:15;;;;;;;;;3473.00;3473.00;;;;;;;;6320546;22;8741;-83
2021/09/25 09:19:41;;;;;;;;;3471.50;3471.50;;;;;;;;6321423;22;8839;-83
2021/09/25 09:22:07;;;;;;;;;3472.75;3472.75;;;;;;;;6318484;22;8772;-82
2021/09/25 09:24:45;;;;;;;;;3456.80;3456.80;;;;;;;;6321044;22;8736;-82
2021/09/25 09:27:18;;;;;;;;;3452.75;3452.75;;;;;;;;6320009;22;8701;-83
2021/09/25 09:29:44;;;;;;;;;3462.80;3462.80;;;;;;;;6317765;22;8767;-83
2021/09/25 09:32:11;;;;;;;;;3449.25;3449.25;;;;;;;;6320999;22;9500;-83
2021/09/25 09:34:37;;;;;;;;;3444.00;3444.00;;;;;;;;6320967;22;8745;-82
2021/09/25 09:37:21;;;;;;;;;3451.00;3451.00;;;;;;;;6318300;22;8725;-83
2021/09/25 09:40:06;;;;;;;;;3459.20;3459.20;;;;;;;;6317903;22;8721;-82
2021/09/25 09:42:41;;;;;;;;;3414.80;3414.80;;;;;;;;6318669;22;8759;-83
2021/09/25 09:45:06;;;;;;;;;3417.00;3417.00;;;;;;;;6320752;22;9706;-83
2021/09/25 09:47:41;;;;;;;;;3412.50;3412.50;;;;;;;;6320855;22;8720;-82
2021/09/25 09:50:07;;;;;;;;;3438.75;3438.75;;;;;;;;6320581;22;8732;-83
2021/09/25 09:52:33;;;;;;;;;3431.75;3431.75;;;;;;;;6320621;22;8721;-82
2021/09/25 09:54:58;;;;;;;;;3415.00;3415.00;;;;;;;;6320434;22;8861;-83
2021/09/25 09:57:24;;;;;;;;;3421.00;3421.00;;;;;;;;6321328;22;8794;-83
2021/09/25 09:59:50;;;;;;;;;3415.75;3415.75;;;;;;;;6319604;22;10128;-83
2021/09/25 10:02:16;;;;;;;;;3414.00;3414.00;;;;;;;;6322214;22;8673;-81
2021/09/25 10:04:41;;;;;;;;;3403.50;3403.50;;;;;;;;6322290;22;8861;-85
2021/09/25 10:07:07;;;;;;;;;3398.25;3398.25;;;;;;;;6322140;22;8871;-84
2021/09/25 10:09:34;;;;;;;;;3400.00;3400.00;;;;;;;;6322051;22;8762;-85
2021/09/25 10:12:00;;;;;;;;;3408.75;3408.75;;;;;;;;6321630;22;8733;-84
2021/09/25 10:14:27;;;;;;;;;3401.40;3401.40;;;;;;;;6321803;22;8877;-84
2021/09/25 10:16:54;;;;;;;;;3403.50;3403.50;;;;;;;;6322199;22;8712;-83
2021/09/25 10:19:20;;;;;;;;;3394.75;3394.75;;;;;;;;6321937;22;8717;-84
2021/09/25 10:21:52;;;;;;;;;3396.50;3396.50;;;;;;;;6322075;22;8841;-84
2021/09/25 10:24:29;;;;;;;;;3401.75;3401.75;;;;;;;;6322066;22;8760;-83
2021/09/25 10:26:55;;;;;;;;;3388.50;3388.50;;;;;;;;6321636;22;8847;-84
2021/09/25 10:29:22;;;;;;;;;3394.75;3394.75;;;;;;;;6321949;22;8897;-84
2021/09/25 10:31:48;;;;;;;;;3394.75;3394.75;;;;;;;;6321897;22;8729;-86
2021/09/25 10:34:13;;;;;;;;;3383.25;3383.25;;;;;;;;6322042;22;8717;-85
2021/09/25 10:36:39;;;;;;;;;3394.75;3394.75;;;;;;;;6321826;22;8769;-87
2021/09/25 10:39:26;;;;;;;;;3400.00;3400.00;;;;;;;;6323085;22;8799;-87
2021/09/25 10:42:06;;;;;;;;;3393.00;3393.00;;;;;;;;6321720;22;8740;-87
2021/09/25 10:44:33;;;;;;;;;3393.00;3393.00;;;;;;;;6321803;22;8791;-86
2021/09/25 10:47:09;;;;;;;;;3376.25;3376.25;;;;;;;;6321599;22;8743;-86
2021/09/25 10:49:41;;;;;;;;;3376.25;3376.25;;;;;;;;6322524;22;8665;-86
2021/09/25 10:52:07;;;;;;;;;3378.00;3378.00;;;;;;;;6322005;22;8835;-89
2021/09/25 10:54:32;;;;;;;;;3349.75;3349.75;;;;;;;;6322131;22;8764;-84
2021/09/25 10:56:58;;;;;;;;;3357.75;3357.75;;;;;;;;6293219;22;8768;-85
2021/09/25 10:59:23;;;;;;;;;3342.75;3342.75;;;;;;;;6293593;22;8991;-83
2021/09/25 11:01:53;;;;;;;;;3337.50;3337.50;;;;;;;;6321837;22;9490;-82
2021/09/25 11:04:20;;;;;;;;;3352.80;3352.80;;;;;;;;6321645;22;8745;-82
2021/09/25 11:06:52;;;;;;;;;3358.40;3358.40;;;;;;;;6293202;22;8697;-82
2021/09/25 11:09:36;;;;;;;;;3374.20;3374.20;;;;;;;;6320727;22;8713;-82
2021/09/25 11:12:09;;;;;;;;;3367.50;3367.50;;;;;;;;6320804;22;8713;-83
2021/09/25 11:14:41;;;;;;;;;3369.00;3369.00;;;;;;;;6321359;22;9011;-83
2021/09/25 11:17:12;;;;;;;;;3376.80;3376.80;;;;;;;;6321647;22;8752;-82
2021/09/25 11:19:39;;;;;;;;;3366.20;3366.20;;;;;;;;6293138;22;8724;-83
2021/09/25 11:22:16;;;;;;;;;3364.40;3364.40;;;;;;;;6321731;22;8754;-82
2021/09/25 11:24:44;;;;;;;;;3366.20;3366.20;;;;;;;;6321599;22;8779;-82
2021/09/25 11:27:12;;;;;;;;;3361.00;3361.00;;;;;;;;6321399;22;8716;-83
2021/09/25 11:29:51;;;;;;;;;3345.00;3345.00;;;;;;;;6308981;22;8760;-82
2021/09/25 11:32:16;;;;;;;;;3351.40;3351.40;;;;;;;;6321660;22;8756;-82
2021/09/25 11:34:41;;;;;;;;;3360.25;3360.25;;;;;;;;6319191;22;8776;-82
2021/09/25 11:37:07;;;;;;;;;3366.50;3366.50;;;;;;;;6321825;22;8764;-82
2021/09/25 11:39:35;;;;;;;;;3350.75;3350.75;;;;;;;;6321504;22;8748;-82
2021/09/25 11:42:07;;;;;;;;;3352.80;3352.80;;;;;;;;6321199;22;8870;-82
2021/09/25 11:44:51;;;;;;;;;3345.80;3345.80;;;;;;;;6321514;22;8743;-82
2021/09/25 11:47:23;;;;;;;;;3356.00;3356.00;;;;;;;;6321724;22;8787;-82
2021/09/25 11:49:48;;;;;;;;;3339.50;3339.50;;;;;;;;6321585;22;8752;-82
2021/09/25 11:52:14;;;;;;;;;3347.50;3347.50;;;;;;;;6318971;22;11526;-83
2021/09/25 11:54:40;;;;;;;;;3322.75;3322.75;;;;;;;;6319388;22;8791;-82
2021/09/25 11:57:31;;;;;;;;;3305.00;3305.00;;;;;;;;6321720;22;8764;-83
2021/09/25 11:59:57;;;;;;;;;2916.50;2915.25;;;;;;;;6315209;22;8704;-82
2021/09/25 12:02:54;;;;;;;;;3074.00;3073.25;;;;;;;;6321704;22;9503;-83
2021/09/25 12:05:25;;;;;;;;;3018.75;3017.75;;;;;;;;6252953;22;8764;-83
2021/09/25 12:07:51;;;;;;;;;3000.75;2999.50;;;;;;;;6321314;22;8857;-83
2021/09/25 12:10:18;;;;;;;;;3068.50;3067.25;;;;;;;;6319096;22;8749;-83
2021/09/25 12:12:43;;;;;;;;;2990.80;2989.60;;;;;;;;6321067;22;8751;-83
2021/09/25 12:15:09;;;;;;;;;3238.75;3238.50;;;;;;;;6321695;22;8736;-83
2021/09/25 12:17:34;;;;;;;;;3216.50;3216.25;;;;;;;;6321371;22;11707;-83
2021/09/25 12:20:27;;;;;;;;;3216.50;3216.25;;;;;;;;6321262;22;8827;-83
2021/09/25 12:22:52;;;;;;;;;3200.80;3200.20;;;;;;;;6321495;22;8859;-83
2021/09/25 12:25:17;;;;;;;;;3214.75;3214.50;;;;;;;;6321732;22;8792;-83
2021/09/25 12:27:43;;;;;;;;;3214.75;3214.50;;;;;;;;6320805;22;8748;-82
2021/09/25 12:30:09;;;;;;;;;3223.00;3223.00;;;;;;;;6320736;22;8830;-82
2021/09/25 12:32:35;;;;;;;;;3177.40;3177.00;;;;;;;;6321906;22;8747;-80
2021/09/25 12:35:00;;;;;;;;;3210.50;3210.25;;;;;;;;6321551;22;8797;-79
2021/09/25 12:37:25;;;;;;;;;3288.75;3288.75;;;;;;;;6292808;22;8748;-81
2021/09/25 12:39:51;;;;;;;;;3283.50;3283.50;;;;;;;;6321471;22;8768;-81
2021/09/25 12:42:26;;;;;;;;;3190.67;3190.67;;;;;;;;6320879;22;8763;-81
2021/09/25 12:44:59;;;;;;;;;2906.40;2905.40;;;;;;;;6320807;22;9685;-79
2021/09/25 12:47:34;;;;;;;;;2901.25;2900.25;;;;;;;;6321456;22;8775;-79
2021/09/25 12:50:18;;;;;;;;;2901.40;2900.00;;;;;;;;6293215;22;8729;-84
2021/09/25 12:52:44;;;;;;;;;2901.20;2900.00;;;;;;;;6321102;22;8756;-82
2021/09/25 12:55:10;;;;;;;;;3086.67;3086.00;;;;;;;;6321474;22;8757;-85
2021/09/25 12:57:35;;;;;;;;;3041.00;3040.25;;;;;;;;6292262;22;8764;-84
2021/09/25 13:00:04;;;;;;;;;3085.00;3084.33;;;;;;;;6321427;22;8821;-84
2021/09/25 13:02:30;;;;;;;;;2894.40;2893.00;;;;;;;;6320613;22;8709;-83
2021/09/25 13:04:56;;;;;;;;;2191.25;2187.50;;;;;;;;6321640;22;8783;-88
2021/09/25 13:07:25;;;;;;;;;2448.75;2446.25;;;;;;;;6321262;22;8748;-85
2021/09/25 13:09:50;;;;;;;;;2205.60;2202.00;;;;;;;;6321036;22;8712;-82
2021/09/25 13:12:19;;;;;;;;;2370.25;2366.50;;;;;;;;6320499;22;9541;-82
2021/09/25 13:14:57;;;;;;;;;2191.25;2187.50;;;;;;;;6292523;22;8772;-82
2021/09/25 13:17:22;;;;;;;;;2374.00;2370.75;;;;;;;;6321018;22;8725;-83
2021/09/25 13:19:48;;;;;;;;;2516.67;2513.33;;;;;;;;6321104;22;8780;-80
2021/09/25 13:22:13;;;;;;;;;2397.33;2394.33;;;;;;;;6320663;22;8782;-82
2021/09/25 13:24:40;;;;;;;;;2356.25;2353.25;;;;;;;;6292332;22;8791;-83
2021/09/25 13:27:05;;;;;;;;;2198.40;2193.40;;;;;;;;6292170;22;8791;-83
2021/09/25 13:29:31;;;;;;;;;2510.33;2507.67;;;;;;;;6320577;22;8928;-83
2021/09/25 13:31:56;;;;;;;;;1535.67;1529.00;;;;;;;;6321469;22;8850;-83
2021/09/25 13:34:21;;;;;;;;;2631.67;2629.67;;;;;;;;6321926;22;8784;-84
2021/09/25 13:36:49;;;;;;;;;2629.00;2625.67;;;;;;;;6293778;22;8755;-84